Terminal Aerodrome Forecast
Issued by NWS

Home | Current Version | Previous Version | Text Only | Print | Product List | Glossary On
Versions: 1 2 3 4 5 6 7 8 9 10 11 12 13 14 15 16
061
FTUS42 TJSJ 231137
TAFJBQ
TAF
TJBQ 231137Z 2312/2412 16005KT P6SM FEW060
     FM231300 08010KT P6SM FEW030 FEW060
     FM231630 08012KT P6SM VCSH SCT025 SCT050
     FM232300 11005KT P6SM FEW060
      AMD NOT SKED 2402/2411=

USA.gov is the U.S. government's official web portal to all federal, state and local government web resources and services.